• Join FlightAware (Why Join?)
  • Login
  • US Flag 
10:13PM EDT


 

Airport Tracker/Info


-or-


 

Live Flight TrackerFlight Track Log ✈ LKF43 ✈ 21-Sep-2013 ✈ KAPA - KENW

Flight Track Log - Related Links

Times and Time Zones

All times are in EDT time to prevent confusion due to time zone crossing. See the LKF43 flight status page for this flight to view local times or setup timezone preferences in your user account.

Time Position Orientation Groundspeed Altitude Reporting Facility
EDT Latitude Longitude Course Direction KTS MPH feet Rate Location/Type
08:50PM 39.5333 -104.8167 42° Northeast 194 223 7,800  Level Denver TRACON
08:51PM 39.5286 -104.7644 97° East 224 258 9,700 2,280 Climbing Denver Center
08:52PM 39.5933 -104.7239 26° Northeast 280 322 12,000 2,340 Climbing Denver Center
08:53PM 39.6825 -104.6792 21° North 317 365 14,500 2,340 Climbing Denver Center
08:54PM 39.7617 -104.6386 21° North 309 356 16,900 2,340 Climbing Denver Center
08:55PM 39.9411 -104.3660 42° Northeast  Level FlightAware Approximate
08:55PM 39.8453 -104.5983 20° North 301 346 19,300  Level Denver Center
08:56PM 39.9203 -104.5633 20° North 289 333 21,500 1,860 Climbing Denver Center
08:57PM 39.9956 -104.5258 21° North 292 336 23,200 1,680 Climbing Denver Center
08:58PM 40.0786 -104.4844 21° North 305 351 25,000 1,680 Climbing Denver Center
08:59PM 40.1764 -104.4358 21° North 314 361 27,000 1,500 Climbing Denver Center
09:00PM 40.2597 -104.3936 21° North 321 369 28,500 1,320 Climbing Denver Center
09:01PM 40.3453 -104.3514 21° North 330 380 29,700 1,140 Climbing Denver Center
09:02PM 40.4331 -104.3083 20° North 336 387 30,900 1,140 Climbing Denver Center
09:03PM 40.5211 -104.2628 21° North 337 388 32,100 1,080 Climbing Denver Center
09:04PM 40.6033 -104.2019 29° Northeast 340 391 33,200 1,020 Climbing Denver Center
09:05PM 40.6903 -104.0903 44° Northeast 358 412 34,200 840 Climbing Denver Center
09:06PM 40.7617 -104.0008 43° Northeast 353 406 35,000 360 Climbing Denver Center
09:07PM 40.8369 -103.9039 44° Northeast 374 430 35,000  Level Denver Center
09:08PM 40.8914 -103.7786 60° Northeast 401 461 35,100 480 Climbing Denver Center
09:09PM 40.9292 -103.6383 70° East 405 466 36,100 960 Climbing Denver Center
09:10PM 40.9725 -103.5086 66° East 391 450 37,100 960 Climbing Denver Center
09:11PM 41.0158 -103.3858 65° Northeast 377 434 38,100 1,020 Climbing Denver Center
09:12PM 41.0611 -103.2483 66° East 367 422 39,200 840 Climbing Denver Center
09:13PM 41.1006 -103.1317 66° East 364 419 39,900 540 Climbing Denver Center
09:14PM 41.1467 -102.9911 66° East 371 427 40,300 300 Climbing Denver Center
09:15PM 41.1864 -102.8739 66° East 386 444 40,600 240 Climbing Denver Center
09:16PM 41.2306 -102.7381 67° East 391 450 40,900 180 Climbing Denver Center
09:17PM 41.2794 -102.5928 66° East 405 466 41,000  Climbing Denver Center
09:18PM 41.3308 -102.4333 67° East 418 481 41,000  Level Denver Center
09:19PM 41.3758 -102.2950 67° East 424 488 41,000  Level Denver Center
09:20PM 41.4225 -102.1544 66° East 431 496 41,000  Level Denver Center
09:21PM 41.4742 -101.9897 67° East 432 497 41,000  Level Denver Center
09:22PM 41.5211 -101.8461 66° East 438 504 41,000  Level Denver Center
09:23PM 41.5661 -101.7050 67° East 433 498 41,000  Level Denver Center
09:24PM 41.6192 -101.5383 67° East 434 499 41,000  Level Denver Center
09:25PM 41.6508 -101.3883 74° East 438 504 41,000  Level Denver Center
09:27PM 41.6722 -101.2078 81° East 441 507 41,000  Level Denver Center
09:28PM 41.6911 -101.0553 81° East 435 501 41,000  Level Denver Center
09:29PM 41.7103 -100.9006 81° East 438 504 41,000  Level Denver Center
09:30PM 41.7342 -100.7203 80° East 439 505 41,000  Level Denver Center
09:31PM 41.7522 -100.5661 81° East 438 504 41,000  Level Denver Center
09:32PM 41.7706 -100.4094 81° East 441 507 41,000  Level Denver Center
09:33PM 41.7919 -100.2289 81° East 441 507 41,000  Level Denver Center
09:34PM 41.8131 -100.0483 81° East 440 506 41,000  Level Denver Center
09:35PM 41.8339 -99.8667 81° East 441 507 41,000  Level Denver Center
09:36PM 41.8567 -99.6736 81° East 438 504 41,000  Level Denver Center
09:37PM 41.8683 -99.5781 81° East 436 502 41,000  Level Minneapolis Center
09:38PM 41.8864 -99.4172 81° East 435 501 41,000  Level Minneapolis Center
09:39PM 41.9036 -99.2561 82° East 435 501 41,000  Level Minneapolis Center
09:40PM 41.9208 -99.0950 82° East 434 499 41,000  Level Minneapolis Center
09:41PM 41.9386 -98.9325 82° East 437 503 41,000  Level Minneapolis Center
09:42PM 41.9564 -98.7719 81° East 435 501 41,000  Level Minneapolis Center
09:43PM 41.9731 -98.6108 82° East 434 499 41,000  Level Minneapolis Center
09:44PM 41.9892 -98.4497 82° East 434 499 41,000  Level Minneapolis Center
09:45PM 42.0064 -98.2892 82° East 433 498 41,000  Level Minneapolis Center
09:46PM 42.0236 -98.1156 82° East 432 497 41,000  Level Minneapolis Center
09:47PM 42.0389 -97.9547 83° East 433 498 41,000  Level Minneapolis Center
09:48PM 42.0547 -97.7942 82° East 433 498 41,000  Level Minneapolis Center
09:49PM 42.0703 -97.6339 82° East 433 498 41,000  Level Minneapolis Center
09:50PM 42.0856 -97.4736 83° East 432 497 41,000  Level Minneapolis Center
09:51PM 42.1006 -97.3106 83° East 436 502 41,000  Level Minneapolis Center
09:52PM 42.1147 -97.1489 83° East 436 502 41,000  Level Minneapolis Center
09:53PM 42.1297 -96.9867 83° East 436 502 41,000  Level Minneapolis Center
09:54PM 42.1444 -96.8247 83° East 436 502 41,000  Level Minneapolis Center
09:55PM 42.1586 -96.6614 83° East 436 502 41,000  Level Minneapolis Center
09:56PM 42.1719 -96.5008 84° East 433 498 41,000  Level Minneapolis Center
09:57PM 42.1858 -96.3389 83° East 433 498 41,000  Level Minneapolis Center
09:58PM 42.1983 -96.1781 84° East 432 497 41,000  Level Minneapolis Center
09:59PM 42.2122 -96.0161 83° East 432 497 41,000  Level Minneapolis Center
10:00PM 42.2242 -95.8531 84° East 435 501 41,000  Level Minneapolis Center
10:01PM 42.2367 -95.6903 84° East 435 501 41,000  Level Minneapolis Center
10:02PM 42.2492 -95.5275 84° East 435 501 41,000  Level Minneapolis Center
10:03PM 42.2617 -95.3675 84° East 431 496 41,000  Level Minneapolis Center
10:04PM 42.2733 -95.2078 84° East 428 493 41,000  Level Minneapolis Center
10:05PM 42.2856 -95.0475 84° East 429 494 41,000  Level Minneapolis Center
10:06PM 42.2969 -94.8881 84° East 428 493 41,000  Level Minneapolis Center
10:07PM 42.3072 -94.7289 85° East 426 490 41,000  Level Minneapolis Center
10:08PM 42.3186 -94.5683 84° East 428 493 41,000  Level Minneapolis Center
10:09PM 42.3286 -94.4075 85° East 429 494 41,000  Level Minneapolis Center
10:10PM 42.3411 -94.2147 85° East 429 494 41,000  Level Minneapolis Center
10:11PM 42.3506 -94.0733 85° East 431 496 41,000  Level Minneapolis Center
10:12PM 42.3606 -93.9153 85° East 427 491 41,000  Level Minneapolis Center
10:13PM 42.3694 -93.7550 86° East 430 495 41,000  Level Minneapolis Center
10:14PM 42.3797 -93.5964 85° East 429 494 41,000  Level Minneapolis Center
10:15PM 42.3889 -93.4369 85° East 429 494 41,000  Level Minneapolis Center
10:16PM 42.3997 -93.2467 86° East 428 493 41,000  Level Minneapolis Center
10:17PM 42.4083 -93.0856 86° East 430 495 41,000  Level Chicago Center
10:18PM 42.4181 -92.9258 85° East 431 496 41,000  Level Chicago Center
10:19PM 42.4278 -92.7675 85° East 428 493 41,000  Level Chicago Center
10:20PM 42.4422 -92.6092 83° East 427 491 41,000  Level Chicago Center
10:21PM 42.4567 -92.4197 84° East 428 493 41,000  Level Chicago Center
10:22PM 42.4686 -92.2631 84° East 425 489 41,000  Level Chicago Center
10:23PM 42.4811 -92.1061 84° East 425 489 41,000  Level Chicago Center
10:24PM 42.4925 -91.9478 84° East 428 493 41,000  Level Chicago Center
10:25PM 42.5050 -91.7889 84° East 431 496 41,000  Level Chicago Center
10:26PM 42.5156 -91.6308 85° East 431 496 41,000  Level Chicago Center
10:27PM 42.5269 -91.4728 84° East 433 498 41,000  Level Chicago Center
10:28PM 42.5381 -91.3158 84° East 430 495 41,000  Level Chicago Center
10:29PM 42.5508 -91.1281 85° East 425 489 41,000  Level Chicago Center
10:30PM 42.5611 -90.9694 85° East 428 493 41,000 -360 Level Chicago Center
10:31PM 42.5719 -90.8103 85° East 429 494 40,300 -1,200 Descending Chicago Center
10:32PM 42.5817 -90.6506 85° East 430 495 38,600 -1,860 Descending Chicago Center
10:33PM 42.5914 -90.4947 85° East 421 484 36,600 -2,040 Descending Chicago Center
10:34PM 42.5997 -90.3389 86° East 418 481 34,600 -2,040 Descending Chicago Center
10:35PM 42.6097 -90.1844 85° East 415 478 32,600 -1,980 Descending Chicago Center
10:36PM 42.6181 -90.0297 86° East 415 478 30,700 -2,040 Descending Chicago Center
10:37PM 42.6283 -89.8536 85° East 418 481 28,500 -2,160 Descending Chicago Center
10:38PM 42.6367 -89.6964 86° East 419 482 26,400 -2,040 Descending Chicago Center
10:39PM 42.6450 -89.5406 86° East 416 479 24,400 -2,040 Descending Chicago Center
10:40PM 42.6536 -89.3922 85° East 402 463 22,400 -1,860 Descending Chicago Center
10:42PM 42.6625 -89.2469 85° East 391 450 20,700 -1,740 Descending Chicago Center
10:43PM 42.6694 -89.1036 86° East 387 445 19,000 -1,740 Descending Chicago Center
10:44PM 42.6783 -88.9653 85° East 376 433 17,300 -1,740 Descending Chicago Center
10:45PM 42.6869 -88.8325 85° East 363 418 15,600 -1,740 Descending Chicago Center
10:46PM 42.6922 -88.7003 87° East 356 410 13,900 -1,740 Descending Chicago Center
10:47PM 42.6903 -88.5719 91° East 345 397 12,200 -1,740 Descending Chicago Center
10:48PM 42.6933 -88.4458 88° East 338 389 10,500 -1,620 Descending Chicago Center
10:49PM 42.6661 -88.3467 110° East 299 344 9,000 -1,620 Descending Chicago Center
10:50PM 42.6014 -88.2961 150° Southeast 275 316 7,300 -1,620 Descending Chicago Center
10:51PM 42.5539 -88.2331 136° Southeast 244 281 5,800 -1,500 Descending Chicago Center
10:52PM 42.5297 -88.1717 118° Southeast 219 252 4,300 -1,440 Descending Chicago Center
10:53PM 42.5319 -88.1081 87° East 183 211 3,000 -960 Descending Chicago Center
10:54PM 42.5556 -88.0419 64° Northeast 168 193 2,400 -660 Descending Chicago Center
10:55PM 42.5739 -87.9919 64° Northeast 160 184 1,700 -480 Descending Chicago Center
10:56PM 42.5906 -87.9453 64° Northeast 157 181 1,500 -240 Descending Chicago Center
10:58PM 42.5957 -87.9278 76° East  Level Estimated